Accueil
METAR-TAF:

METAR-TAF

Aéroports :

Aéroport de Minna

Minna, Nigeria

latitude: 9-37N, longitude: 6-32E, altitude: 260 m

Observation

Le bulletin a été fait il y a 1 heure et 22 minutes, à 21:00 UTC
Vent 4 kt de est
Température 29°C
Humidité 37%
Pression 1012 hPa
Visibilité: 6000 m

METAR: DNMN 182100Z 08004KT 6000 NSC 29/13 Q1012

Heure: 23:22 (22:22 UTC)

Prévision

Le bulletin a été fait il y a 5 heures et 22 minutes, à 17:00 UTC
Prévision valable du 18 à 18 UTC au 19 à 24 UTC
Vent 6 kt de ouest/nord-ouest
Visibilité: 6000 m
Temporairement
du 18 à 20 UTC au 18 à 24 UTC
Vent 16 kt de est/nord-est
Visibilité: 5000 m
brume sèche
Probabilité 30% :
Temporairement
du 19 à 01 UTC au 19 à 06 UTC
Vent 14 kt de est avec des rafales jusqu'à 28 kt
Visibilité: 3000 m

TAF: DNMN 181700Z 1818/1924 30006KT 6000 NSC TEMPO 1820/1824 07016KT 5000 HZ PROB30 TEMPO 1901/1906 08014G28KT 3000

Observations et prévisions météorologiques de plus de 4000 aéroports (messages METAR et TAF).

Les stations disponibles sont représentées par des disques jaunes et rouges sur la carte.

Passer la souris dessus pour voir le nom de la station.

Cliquer dessus pour voir les observations et prévisions météorologiques.

Pour changer de carte: cliquez sur les boutons verts avec une croix noire pour zoomer, sur le bouton vert avec un tiret pour effectuer un zoom arrière, ou sur les flèches vertes pour les cartes adjacentes.


METAR-TAF: